Time;durP1;ratioP1;P1;durP2;ratioP2;P2;SDS_P1;SDS_P2;PMS_P1;PMS_P2;Temp;Humidity;BMP_temperature;BMP_pressure;BME280_temperature;BME280_humidity;BME280_pressure;Samples;Min_cycle;Max_cycle;Signal;HPM_P1;HPM_P2
2022/10/09 00:01:19;;;;;;;;;;;19.10;1.00;;;;;;5036151;28;19920;-51
2022/10/09 00:03:48;;;;;;;;;;;19.10;1.00;;;;;;5033552;28;19925;-56
2022/10/09 00:06:17;;;;;;;;;;;19.10;1.00;;;;;;5036150;28;19924;-55
2022/10/09 00:08:44;;;;;;;;;;;19.10;1.00;;;;;;5034767;28;19924;-56
2022/10/09 00:11:12;;;;;;;;;;;19.10;1.00;;;;;;5036068;28;19921;-54
2022/10/09 00:13:39;;;;;;;;;;;19.10;1.00;;;;;;5035431;28;19921;-55
2022/10/09 00:16:07;;;;;;;;;;;19.10;1.00;;;;;;5036042;28;19975;-51
2022/10/09 00:18:34;;;;;;;;;;;19.00;1.00;;;;;;5035432;28;20032;-55
2022/10/09 00:21:01;;;;;;;;;;;19.10;1.00;;;;;;5035708;28;19929;-51
2022/10/09 00:23:28;;;;;;;;;;;19.10;1.00;;;;;;5035150;28;19921;-54
2022/10/09 00:25:56;;;;;;;;;;;19.10;1.00;;;;;;5035482;28;19996;-53
2022/10/09 00:28:24;;;;;;;;;;;19.00;1.00;;;;;;5035515;28;19921;-57
2022/10/09 00:30:51;;;;;;;;;;;19.00;1.00;;;;;;5035717;28;19921;-54
2022/10/09 00:33:18;;;;;;;;;;;19.00;1.00;;;;;;5034965;28;19925;-55
2022/10/09 00:35:45;;;;;;;;;;;19.00;1.00;;;;;;5035136;28;19932;-52
2022/10/09 00:38:13;;;;;;;;;;;19.00;1.00;;;;;;5035034;28;19924;-55
2022/10/09 00:40:39;;;;;;;;;;;19.00;1.00;;;;;;5035139;28;20295;-55
2022/10/09 00:43:13;;;;;;;;;;;19.00;1.00;;;;;;5035290;28;19928;-54
2022/10/09 00:45:43;;;;;;;;;;;19.00;1.00;;;;;;5035042;28;19925;-57
2022/10/09 00:48:11;;;;;;;;;;;18.90;1.00;;;;;;5034982;28;20286;-58
2022/10/09 00:50:40;;;;;;;;;;;18.90;1.00;;;;;;5034819;28;19967;-54
2022/10/09 00:53:09;;;;;;;;;;;18.90;1.00;;;;;;5034584;28;19921;-54
2022/10/09 00:55:37;;;;;;;;;;;18.90;1.00;;;;;;5034759;28;19921;-53
2022/10/09 00:58:03;;;;;;;;;;;18.90;1.00;;;;;;5034781;28;19924;-54
2022/10/09 01:00:30;;;;;;;;;;;18.90;1.00;;;;;;5035095;28;19921;-54
2022/10/09 01:02:57;;;;;;;;;;;18.90;1.00;;;;;;5034431;28;19921;-56
2022/10/09 01:05:42;;;;;;;;;;;18.90;1.00;;;;;;5034910;28;19925;-54
2022/10/09 01:08:13;;;;;;;;;;;18.90;1.00;;;;;;5034528;28;19927;-53
2022/10/09 01:10:44;;;;;;;;;;;18.90;1.00;;;;;;5035308;28;19955;-52
2022/10/09 01:13:31;;;;;;;;;;;18.90;1.00;;;;;;5034288;28;19921;-57
2022/10/09 01:16:01;;;;;;;;;;;18.90;1.00;;;;;;5034662;28;19921;-54
2022/10/09 01:18:37;;;;;;;;;;;18.90;1.00;;;;;;5034912;28;19983;-53
2022/10/09 01:21:09;;;;;;;;;;;18.90;1.00;;;;;;5034330;28;19943;-55
2022/10/09 01:23:41;;;;;;;;;;;18.90;1.00;;;;;;5034011;28;19925;-55
2022/10/09 01:26:20;;;;;;;;;;;18.80;1.00;;;;;;5034343;28;19921;-51
2022/10/09 01:28:52;;;;;;;;;;;18.80;1.00;;;;;;5034378;28;19943;-53
2022/10/09 01:31:19;;;;;;;;;;;18.90;1.00;;;;;;5034125;28;20115;-52
2022/10/09 01:33:46;;;;;;;;;;;18.80;1.00;;;;;;5034113;28;20003;-56
2022/10/09 01:36:14;;;;;;;;;;;18.90;1.00;;;;;;5034532;28;19921;-52
2022/10/09 01:38:41;;;;;;;;;;;18.80;1.00;;;;;;5034217;28;19968;-57
2022/10/09 01:41:08;;;;;;;;;;;18.90;1.00;;;;;;5034116;28;19927;-53
2022/10/09 01:43:34;;;;;;;;;;;18.90;1.00;;;;;;5034255;28;19921;-55
2022/10/09 01:46:19;;;;;;;;;;;18.80;1.00;;;;;;5034539;28;20047;-52
2022/10/09 01:48:50;;;;;;;;;;;18.80;1.00;;;;;;5034078;28;19920;-52
2022/10/09 01:51:18;;;;;;;;;;;18.80;1.00;;;;;;5034126;28;20389;-58
2022/10/09 01:53:46;;;;;;;;;;;18.80;1.00;;;;;;5033476;28;19967;-59
2022/10/09 01:56:16;;;;;;;;;;;18.80;1.00;;;;;;5033710;28;19928;-57
2022/10/09 01:58:50;;;;;;;;;;;18.80;1.00;;;;;;5033872;28;20398;-52
2022/10/09 02:01:20;;;;;;;;;;;18.80;1.00;;;;;;5034137;28;19920;-55
2022/10/09 02:03:48;;;;;;;;;;;18.80;1.00;;;;;;5033497;28;19922;-52
2022/10/09 02:06:16;;;;;;;;;;;18.80;1.00;;;;;;5033642;28;19921;-57
2022/10/09 02:08:44;;;;;;;;;;;18.80;1.00;;;;;;5033636;28;19921;-55
2022/10/09 02:11:13;;;;;;;;;;;18.80;1.00;;;;;;5033719;28;19960;-55
2022/10/09 02:13:40;;;;;;;;;;;18.80;1.00;;;;;;5033192;28;20315;-50
2022/10/09 02:16:36;;;;;;;;;;;18.80;1.00;;;;;;5033699;28;19929;-52
2022/10/09 02:19:21;;;;;;;;;;;18.80;1.00;;;;;;5025022;28;19921;-54
2022/10/09 02:21:56;;;;;;;;;;;18.70;1.00;;;;;;5033569;28;19921;-53
2022/10/09 02:24:23;;;;;;;;;;;18.70;1.00;;;;;;5033399;28;20393;-48
2022/10/09 02:26:53;;;;;;;;;;;18.70;1.00;;;;;;5033688;28;19920;-55
2022/10/09 02:29:20;;;;;;;;;;;18.70;1.00;;;;;;5033558;28;20015;-50
2022/10/09 02:31:47;;;;;;;;;;;18.70;1.00;;;;;;5033811;28;19928;-54
2022/10/09 02:34:18;;;;;;;;;;;18.70;1.00;;;;;;5037492;28;19921;-58
2022/10/09 02:36:45;;;;;;;;;;;18.70;1.00;;;;;;5037312;28;19921;-54
2022/10/09 02:39:12;;;;;;;;;;;18.70;1.00;;;;;;5037398;28;19921;-59
2022/10/09 02:41:38;;;;;;;;;;;18.60;1.00;;;;;;5037177;28;19974;-56
2022/10/09 02:44:05;;;;;;;;;;;18.60;1.00;;;;;;5037347;28;19925;-53
2022/10/09 02:46:33;;;;;;;;;;;18.60;1.00;;;;;;5037158;28;19921;-49
2022/10/09 02:48:59;;;;;;;;;;;18.60;1.00;;;;;;5037413;28;19975;-52
2022/10/09 02:51:26;;;;;;;;;;;18.60;1.00;;;;;;5037238;28;20401;-52
2022/10/09 02:53:53;;;;;;;;;;;18.60;1.00;;;;;;5036733;28;19971;-51
2022/10/09 02:56:23;;;;;;;;;;;18.60;1.00;;;;;;5037195;28;19920;-56
2022/10/09 02:58:50;;;;;;;;;;;18.60;1.00;;;;;;5036961;28;20371;-53
2022/10/09 03:01:17;;;;;;;;;;;18.60;1.00;;;;;;5037211;28;19921;-53
2022/10/09 03:03:44;;;;;;;;;;;18.60;1.00;;;;;;5036948;28;19921;-55
2022/10/09 03:06:12;;;;;;;;;;;18.60;1.00;;;;;;5037253;28;20267;-51
2022/10/09 03:08:40;;;;;;;;;;;18.60;1.00;;;;;;5037142;28;19953;-50
2022/10/09 03:11:08;;;;;;;;;;;18.50;1.00;;;;;;5036910;28;19943;-56
2022/10/09 03:13:34;;;;;;;;;;;18.50;1.00;;;;;;5036544;28;19921;-51
2022/10/09 03:16:03;;;;;;;;;;;18.60;1.00;;;;;;5036667;28;19921;-51
2022/10/09 03:18:30;;;;;;;;;;;18.50;1.00;;;;;;5037093;28;19928;-59
2022/10/09 03:20:57;;;;;;;;;;;18.50;1.00;;;;;;5036592;28;20429;-57
2022/10/09 03:23:24;;;;;;;;;;;18.50;1.00;;;;;;5036649;28;20035;-55
2022/10/09 03:26:17;;;;;;;;;;;18.50;1.00;;;;;;5036440;28;19968;-53
2022/10/09 03:28:47;;;;;;;;;;;18.50;1.00;;;;;;5034709;28;20395;-51
2022/10/09 03:31:15;;;;;;;;;;;18.50;1.00;;;;;;5036666;28;19921;-53
2022/10/09 03:34:02;;;;;;;;;;;18.50;1.00;;;;;;5036913;28;19921;-56
2022/10/09 03:36:29;;;;;;;;;;;18.50;1.00;;;;;;5036212;28;19921;-53
2022/10/09 03:38:55;;;;;;;;;;;18.50;1.00;;;;;;5036213;28;19927;-53
2022/10/09 03:41:22;;;;;;;;;;;18.50;1.00;;;;;;5036456;28;19952;-51
2022/10/09 03:43:49;;;;;;;;;;;18.50;1.00;;;;;;5036219;28;19921;-57
2022/10/09 03:46:15;;;;;;;;;;;18.50;1.00;;;;;;5036246;28;19967;-55
2022/10/09 03:48:42;;;;;;;;;;;18.40;1.00;;;;;;5036491;28;19928;-57
2022/10/09 03:51:09;;;;;;;;;;;18.40;1.00;;;;;;5036058;28;19921;-57
2022/10/09 03:53:36;;;;;;;;;;;18.40;1.00;;;;;;5035802;28;19984;-54
2022/10/09 03:56:02;;;;;;;;;;;18.40;1.00;;;;;;5035903;28;20367;-50
2022/10/09 03:58:29;;;;;;;;;;;18.40;1.00;;;;;;5036254;28;19943;-54
2022/10/09 04:00:56;;;;;;;;;;;18.40;1.00;;;;;;5035879;28;19928;-51
2022/10/09 04:03:23;;;;;;;;;;;18.40;1.00;;;;;;5035512;28;20371;-51
2022/10/09 04:05:50;;;;;;;;;;;18.40;1.00;;;;;;5035657;28;19928;-57
2022/10/09 04:08:16;;;;;;;;;;;18.40;1.00;;;;;;5035722;28;19960;-56
2022/10/09 04:10:43;;;;;;;;;;;18.40;1.00;;;;;;5036414;28;20015;-51
2022/10/09 04:13:10;;;;;;;;;;;18.40;1.00;;;;;;5035551;28;19921;-54
2022/10/09 04:15:37;;;;;;;;;;;18.30;1.00;;;;;;5035452;28;19921;-57
2022/10/09 04:18:04;;;;;;;;;;;18.30;1.00;;;;;;5035805;28;20016;-56
2022/10/09 04:20:31;;;;;;;;;;;18.30;1.00;;;;;;5036153;28;20012;-51
2022/10/09 04:22:57;;;;;;;;;;;18.30;1.00;;;;;;5035144;28;19921;-58
2022/10/09 04:25:24;;;;;;;;;;;18.30;1.00;;;;;;5035688;28;19971;-58
2022/10/09 04:27:51;;;;;;;;;;;18.30;1.00;;;;;;5035881;28;19928;-55
2022/10/09 04:30:17;;;;;;;;;;;18.30;1.00;;;;;;5035382;28;20441;-50
2022/10/09 04:32:46;;;;;;;;;;;18.30;1.00;;;;;;5034853;28;19921;-57
2022/10/09 04:35:15;;;;;;;;;;;18.20;1.00;;;;;;5035513;28;19925;-57
2022/10/09 04:37:42;;;;;;;;;;;18.20;1.00;;;;;;5035249;28;19928;-53
2022/10/09 04:40:09;;;;;;;;;;;18.20;1.00;;;;;;5035081;28;19921;-55
2022/10/09 04:42:36;;;;;;;;;;;18.20;1.00;;;;;;5034852;28;20461;-55
2022/10/09 04:45:03;;;;;;;;;;;18.20;1.00;;;;;;5034981;28;19921;-54
2022/10/09 04:47:30;;;;;;;;;;;18.30;1.00;;;;;;5035031;28;19921;-54
2022/10/09 04:49:56;;;;;;;;;;;18.30;1.00;;;;;;5034918;28;19925;-52
2022/10/09 04:52:23;;;;;;;;;;;18.20;1.00;;;;;;5034932;28;20291;-54
2022/10/09 04:54:50;;;;;;;;;;;18.20;1.00;;;;;;5034535;28;19920;-52
2022/10/09 04:57:17;;;;;;;;;;;18.20;1.00;;;;;;5034776;28;19920;-55
2022/10/09 04:59:43;;;;;;;;;;;18.20;1.00;;;;;;5034995;28;19979;-58
2022/10/09 05:02:10;;;;;;;;;;;18.20;1.00;;;;;;5034789;28;20339;-50
2022/10/09 05:04:37;;;;;;;;;;;18.20;1.00;;;;;;5034650;28;20371;-54
2022/10/09 05:07:03;;;;;;;;;;;18.20;1.00;;;;;;5034869;28;19975;-56
2022/10/09 05:09:30;;;;;;;;;;;18.20;1.00;;;;;;5034871;28;19928;-56
2022/10/09 05:11:57;;;;;;;;;;;18.20;1.00;;;;;;5034249;28;19937;-55
2022/10/09 05:14:24;;;;;;;;;;;18.10;1.00;;;;;;5034567;28;19921;-53
2022/10/09 05:16:51;;;;;;;;;;;18.20;1.00;;;;;;5034546;28;20432;-55
2022/10/09 05:19:38;;;;;;;;;;;18.20;1.00;;;;;;5034751;28;19932;-54
2022/10/09 05:22:05;;;;;;;;;;;18.10;1.00;;;;;;5034218;28;19967;-51
2022/10/09 05:24:31;;;;;;;;;;;18.10;1.00;;;;;;5034729;28;20277;-56
2022/10/09 05:26:58;;;;;;;;;;;18.10;1.00;;;;;;5034302;28;19960;-58
2022/10/09 05:29:25;;;;;;;;;;;18.10;1.00;;;;;;5034520;28;19925;-53
2022/10/09 05:31:52;;;;;;;;;;;18.10;1.00;;;;;;5034042;28;19921;-52
2022/10/09 05:34:19;;;;;;;;;;;18.10;1.00;;;;;;5034311;28;19979;-54
2022/10/09 05:36:45;;;;;;;;;;;18.10;1.00;;;;;;5034555;28;19925;-55
2022/10/09 05:39:12;;;;;;;;;;;18.10;1.00;;;;;;5034147;28;19921;-53
2022/10/09 05:41:39;;;;;;;;;;;18.10;1.00;;;;;;5034051;28;19968;-54
2022/10/09 05:44:05;;;;;;;;;;;18.10;1.00;;;;;;5034437;28;19924;-56
2022/10/09 05:46:32;;;;;;;;;;;18.10;1.00;;;;;;5033751;28;19974;-54
2022/10/09 05:49:00;;;;;;;;;;;18.10;1.00;;;;;;5033019;28;19933;-53
2022/10/09 05:51:31;;;;;;;;;;;18.10;1.00;;;;;;5030039;28;20041;-52
2022/10/09 05:53:58;;;;;;;;;;;18.00;1.00;;;;;;5029367;28;19924;-53
2022/10/09 05:56:26;;;;;;;;;;;18.00;1.00;;;;;;5028072;28;20282;-53
2022/10/09 05:58:54;;;;;;;;;;;18.10;1.00;;;;;;5033890;28;19921;-52
2022/10/09 06:01:22;;;;;;;;;;;18.00;1.00;;;;;;5033585;28;19921;-57
2022/10/09 06:03:50;;;;;;;;;;;18.00;1.00;;;;;;5033873;28;19931;-50
2022/10/09 06:06:17;;;;;;;;;;;18.00;1.00;;;;;;5032811;28;19921;-48
2022/10/09 06:08:44;;;;;;;;;;;18.00;1.00;;;;;;5034181;28;20031;-55
2022/10/09 06:11:12;;;;;;;;;;;18.00;1.00;;;;;;5033612;28;19921;-58
2022/10/09 06:13:39;;;;;;;;;;;18.00;1.00;;;;;;5033219;28;19979;-53
2022/10/09 06:16:07;;;;;;;;;;;18.00;1.00;;;;;;5033236;28;20012;-55
2022/10/09 06:18:33;;;;;;;;;;;18.00;1.00;;;;;;5033742;28;19975;-54
2022/10/09 06:21:00;;;;;;;;;;;17.90;1.00;;;;;;5033569;28;19928;-57
2022/10/09 06:23:28;;;;;;;;;;;18.00;1.00;;;;;;5033124;28;19921;-50
2022/10/09 06:25:59;;;;;;;;;;;18.00;1.00;;;;;;5033406;28;19940;-52
2022/10/09 06:28:29;;;;;;;;;;;17.90;1.00;;;;;;5033612;28;20016;-50
2022/10/09 06:31:16;;;;;;;;;;;18.00;1.00;;;;;;5033550;28;19924;-57
2022/10/09 06:33:43;;;;;;;;;;;18.00;1.00;;;;;;5033885;28;20289;-54
2022/10/09 06:36:15;;;;;;;;;;;17.90;1.00;;;;;;5033218;28;19971;-52
2022/10/09 06:38:41;;;;;;;;;;;17.90;1.00;;;;;;5033524;28;19925;-54
2022/10/09 06:41:09;;;;;;;;;;;17.90;1.00;;;;;;5033413;28;20377;-54
2022/10/09 06:43:36;;;;;;;;;;;17.90;1.00;;;;;;5033539;28;20298;-55
2022/10/09 06:46:04;;;;;;;;;;;17.90;1.00;;;;;;5033213;28;20367;-54
2022/10/09 06:48:31;;;;;;;;;;;17.90;1.00;;;;;;5033109;28;19921;-54
2022/10/09 06:51:02;;;;;;;;;;;17.90;1.00;;;;;;5033437;28;19991;-55
2022/10/09 06:53:28;;;;;;;;;;;17.90;1.00;;;;;;5032952;28;19925;-57
2022/10/09 06:55:56;;;;;;;;;;;17.90;1.00;;;;;;5032989;28;19920;-58
2022/10/09 06:58:23;;;;;;;;;;;17.90;1.00;;;;;;5033232;28;19921;-55
2022/10/09 07:01:00;;;;;;;;;;;17.80;1.00;;;;;;5033194;28;20294;-54
2022/10/09 07:03:26;;;;;;;;;;;17.80;1.00;;;;;;5033154;28;19921;-57
2022/10/09 07:05:53;;;;;;;;;;;17.80;1.00;;;;;;5033163;28;19971;-54
2022/10/09 07:08:20;;;;;;;;;;;17.80;1.00;;;;;;5033139;28;19921;-55
2022/10/09 07:10:47;;;;;;;;;;;17.90;1.00;;;;;;5033444;28;19975;-56
2022/10/09 07:13:13;;;;;;;;;;;17.80;1.00;;;;;;5032806;28;19948;-57
2022/10/09 07:15:43;;;;;;;;;;;17.80;1.00;;;;;;5032922;28;19971;-53
2022/10/09 07:18:10;;;;;;;;;;;17.80;1.00;;;;;;5034577;28;20255;-56
2022/10/09 07:20:37;;;;;;;;;;;17.80;1.00;;;;;;5036686;28;19928;-48
2022/10/09 07:23:04;;;;;;;;;;;17.80;1.00;;;;;;5036421;28;19983;-50
2022/10/09 07:25:30;;;;;;;;;;;17.80;1.00;;;;;;5036381;28;20007;-50
2022/10/09 07:27:57;;;;;;;;;;;17.80;1.00;;;;;;5037005;28;19967;-56
2022/10/09 07:30:24;;;;;;;;;;;17.80;1.00;;;;;;5036323;28;19925;-56
2022/10/09 07:32:50;;;;;;;;;;;17.70;1.00;;;;;;5036545;28;19960;-54
2022/10/09 07:35:17;;;;;;;;;;;17.70;1.00;;;;;;5036382;28;20294;-53
2022/10/09 07:37:44;;;;;;;;;;;17.70;1.00;;;;;;5036147;28;19944;-55
2022/10/09 07:40:11;;;;;;;;;;;17.70;1.00;;;;;;5036582;28;19974;-53
2022/10/09 07:42:37;;;;;;;;;;;17.70;1.00;;;;;;5035935;28;19921;-53
2022/10/09 07:45:04;;;;;;;;;;;17.70;1.00;;;;;;5036287;28;19947;-48
2022/10/09 07:47:31;;;;;;;;;;;17.70;1.00;;;;;;5036183;28;19921;-50
2022/10/09 07:49:58;;;;;;;;;;;17.70;1.00;;;;;;5036100;28;19975;-54
2022/10/09 07:52:25;;;;;;;;;;;17.70;1.00;;;;;;5035714;28;19921;-55
2022/10/09 07:54:51;;;;;;;;;;;17.70;1.00;;;;;;5036120;28;19921;-55
2022/10/09 07:57:18;;;;;;;;;;;17.60;1.00;;;;;;5035811;28;19978;-52
2022/10/09 07:59:45;;;;;;;;;;;17.70;1.00;;;;;;5035938;28;20054;-51
2022/10/09 08:02:11;;;;;;;;;;;17.70;1.00;;;;;;5035530;28;19967;-50
2022/10/09 08:04:38;;;;;;;;;;;17.70;1.00;;;;;;5036047;28;19921;-52
2022/10/09 08:07:05;;;;;;;;;;;17.70;1.00;;;;;;5035713;28;19921;-56
2022/10/09 08:09:32;;;;;;;;;;;17.60;1.00;;;;;;5035775;28;19952;-52
2022/10/09 08:11:58;;;;;;;;;;;17.60;1.00;;;;;;5035652;28;20264;-51
2022/10/09 08:14:25;;;;;;;;;;;17.70;1.00;;;;;;5036011;28;19928;-51
2022/10/09 08:16:52;;;;;;;;;;;17.70;1.00;;;;;;5035945;28;19925;-56
2022/10/09 08:19:19;;;;;;;;;;;17.70;1.00;;;;;;5035559;28;19921;-57
2022/10/09 08:21:45;;;;;;;;;;;17.80;1.00;;;;;;5035314;28;19921;-57
2022/10/09 08:24:12;;;;;;;;;;;17.80;1.00;;;;;;5035526;28;19928;-58
2022/10/09 08:26:39;;;;;;;;;;;17.90;1.00;;;;;;5035379;28;19921;-53
2022/10/09 08:29:07;;;;;;;;;;;18.00;1.00;;;;;;5034892;28;20305;-56
2022/10/09 08:31:34;;;;;;;;;;;18.10;1.00;;;;;;5034894;28;19921;-53
2022/10/09 08:34:02;;;;;;;;;;;18.20;1.00;;;;;;5035171;28;19921;-57
2022/10/09 08:36:29;;;;;;;;;;;18.30;1.00;;;;;;5035262;28;19928;-52
2022/10/09 08:38:56;;;;;;;;;;;18.30;1.00;;;;;;5035698;28;19921;-53
2022/10/09 08:41:31;;;;;;;;;;;18.40;1.00;;;;;;5035300;28;19921;-54
2022/10/09 08:44:09;;;;;;;;;;;18.40;1.00;;;;;;5035206;28;19921;-56
2022/10/09 08:46:41;;;;;;;;;;;18.40;1.00;;;;;;5034940;28;19921;-54
2022/10/09 08:49:18;;;;;;;;;;;18.40;1.00;;;;;;5035732;28;19952;-52
2022/10/09 08:51:45;;;;;;;;;;;18.40;1.00;;;;;;5034672;28;19952;-55
2022/10/09 08:54:18;;;;;;;;;;;18.50;1.00;;;;;;5035139;28;19921;-48
2022/10/09 08:56:46;;;;;;;;;;;18.50;1.00;;;;;;5034714;28;20294;-52
2022/10/09 08:59:13;;;;;;;;;;;18.50;1.00;;;;;;5035354;28;20309;-58
2022/10/09 09:01:39;;;;;;;;;;;18.60;1.00;;;;;;5034519;28;20418;-56
2022/10/09 09:04:06;;;;;;;;;;;18.60;1.00;;;;;;5035081;28;20422;-58
2022/10/09 09:06:39;;;;;;;;;;;18.60;1.00;;;;;;5034746;28;19921;-52
2022/10/09 09:09:10;;;;;;;;;;;18.70;1.00;;;;;;5035093;28;19929;-54
2022/10/09 09:11:49;;;;;;;;;;;18.70;1.00;;;;;;5034298;28;19921;-53
2022/10/09 09:14:30;;;;;;;;;;;18.80;1.00;;;;;;5034579;28;19928;-51
2022/10/09 09:17:06;;;;;;;;;;;18.80;1.00;;;;;;5034569;28;19921;-54
2022/10/09 09:19:35;;;;;;;;;;;18.80;1.00;;;;;;5034885;28;20012;-56
2022/10/09 09:22:02;;;;;;;;;;;18.80;1.00;;;;;;5034081;28;19921;-49
2022/10/09 09:24:29;;;;;;;;;;;18.90;1.00;;;;;;5034278;28;19924;-54
2022/10/09 09:26:59;;;;;;;;;;;18.90;1.00;;;;;;5034400;28;20267;-57
2022/10/09 09:29:27;;;;;;;;;;;18.90;1.00;;;;;;5034267;28;19960;-54
2022/10/09 09:31:57;;;;;;;;;;;18.90;1.00;;;;;;5033747;28;19935;-52
2022/10/09 09:34:33;;;;;;;;;;;18.90;1.00;;;;;;5034278;28;19924;-52
2022/10/09 09:37:00;;;;;;;;;;;18.90;1.00;;;;;;5033913;28;19975;-54
2022/10/09 09:39:28;;;;;;;;;;;18.90;1.00;;;;;;5034270;28;19921;-55
2022/10/09 09:42:16;;;;;;;;;;;19.00;1.00;;;;;;5033725;28;19928;-53
2022/10/09 09:44:58;;;;;;;;;;;19.00;1.00;;;;;;5034384;28;19925;-58
2022/10/09 09:47:31;;;;;;;;;;;19.00;1.00;;;;;;5033966;28;19920;-59
2022/10/09 09:49:59;;;;;;;;;;;19.10;1.00;;;;;;5034061;28;19921;-53
2022/10/09 09:52:33;;;;;;;;;;;19.10;1.00;;;;;;5033775;28;19967;-54
2022/10/09 09:55:00;;;;;;;;;;;19.10;1.00;;;;;;5033986;28;19928;-57
2022/10/09 09:57:45;;;;;;;;;;;19.10;1.00;;;;;;5033758;28;19956;-55
2022/10/09 10:00:15;;;;;;;;;;;19.10;1.00;;;;;;5034432;28;19921;-56
2022/10/09 10:02:41;;;;;;;;;;;19.20;1.00;;;;;;5033437;28;20350;-51
2022/10/09 10:05:16;;;;;;;;;;;19.20;1.00;;;;;;5033763;28;20327;-55
2022/10/09 10:07:43;;;;;;;;;;;19.20;1.00;;;;;;5033605;28;19925;-53
2022/10/09 10:10:16;;;;;;;;;;;19.20;1.00;;;;;;5034316;28;19975;-52
2022/10/09 10:12:50;;;;;;;;;;;19.20;1.00;;;;;;5033434;28;19928;-53
2022/10/09 10:15:31;;;;;;;;;;;19.30;1.00;;;;;;5033705;28;20016;-53
2022/10/09 10:18:03;;;;;;;;;;;19.30;1.00;;;;;;5034206;28;20454;-52
2022/10/09 10:20:31;;;;;;;;;;;19.30;1.00;;;;;;5033987;28;20300;-57
2022/10/09 10:22:59;;;;;;;;;;;19.30;1.00;;;;;;5033429;28;19955;-53
2022/10/09 10:25:30;;;;;;;;;;;19.30;1.00;;;;;;5033278;28;20016;-55
2022/10/09 10:28:00;;;;;;;;;;;19.40;1.00;;;;;;5033456;28;20359;-54
2022/10/09 10:30:27;;;;;;;;;;;19.40;1.00;;;;;;5033406;28;19929;-56
2022/10/09 10:32:54;;;;;;;;;;;19.40;1.00;;;;;;5033079;28;19967;-52
2022/10/09 10:35:30;;;;;;;;;;;19.40;1.00;;;;;;5033211;28;20378;-51
2022/10/09 10:38:06;;;;;;;;;;;19.40;1.00;;;;;;5033316;28;19964;-49
2022/10/09 10:40:40;;;;;;;;;;;19.40;1.00;;;;;;5033382;28;19924;-54
2022/10/09 10:43:29;;;;;;;;;;;19.40;1.00;;;;;;5033682;28;19921;-55
2022/10/09 10:46:02;;;;;;;;;;;19.40;1.00;;;;;;5033034;28;19921;-48
2022/10/09 10:48:40;;;;;;;;;;;19.40;1.00;;;;;;5033270;28;19921;-55
2022/10/09 10:51:28;;;;;;;;;;;19.40;1.00;;;;;;5033565;28;19921;-53
2022/10/09 10:54:12;;;;;;;;;;;19.40;1.00;;;;;;5015103;28;19924;-53
2022/10/09 10:56:47;;;;;;;;;;;19.40;1.00;;;;;;5037101;28;19921;-54
2022/10/09 10:59:20;;;;;;;;;;;19.40;1.00;;;;;;5037341;28;20325;-52
2022/10/09 11:02:13;;;;;;;;;;;19.30;1.00;;;;;;5036706;28;19983;-55
2022/10/09 11:04:49;;;;;;;;;;;19.30;1.00;;;;;;5021583;28;19925;-53
2022/10/09 11:07:28;;;;;;;;;;;19.30;1.00;;;;;;5037050;28;19925;-59
2022/10/09 11:10:18;;;;;;;;;;;19.30;1.00;;;;;;5036929;28;19921;-55
2022/10/09 11:12:51;;;;;;;;;;;19.30;1.00;;;;;;5036826;28;20012;-51
2022/10/09 11:15:18;;;;;;;;;;;19.30;1.00;;;;;;5036768;28;20264;-54
2022/10/09 11:18:03;;;;;;;;;;;19.30;1.00;;;;;;5036662;28;19975;-53
2022/10/09 11:20:49;;;;;;;;;;;19.30;1.00;;;;;;5037022;28;19925;-49
2022/10/09 11:23:30;;;;;;;;;;;19.30;1.00;;;;;;5036492;28;19921;-49
2022/10/09 11:26:06;;;;;;;;;;;19.30;1.00;;;;;;5036487;28;19935;-54
2022/10/09 11:28:36;;;;;;;;;;;19.30;1.00;;;;;;5036597;28;19963;-59
2022/10/09 11:31:08;;;;;;;;;;;19.30;1.00;;;;;;5036583;28;20454;-55
2022/10/09 11:33:37;;;;;;;;;;;19.30;1.00;;;;;;5036191;28;19921;-55
2022/10/09 11:36:10;;;;;;;;;;;19.30;1.00;;;;;;5036409;28;20268;-56
2022/10/09 11:38:42;;;;;;;;;;;19.30;1.00;;;;;;5036401;28;19967;-58
2022/10/09 11:41:10;;;;;;;;;;;19.30;1.00;;;;;;5036319;28;19921;-49
2022/10/09 11:43:50;;;;;;;;;;;19.30;1.00;;;;;;5036009;28;19975;-54
2022/10/09 11:46:17;;;;;;;;;;;19.20;1.00;;;;;;5035725;28;19921;-57
2022/10/09 11:48:51;;;;;;;;;;;19.20;1.00;;;;;;5035964;28;19928;-55
2022/10/09 11:51:32;;;;;;;;;;;19.20;1.00;;;;;;5036293;28;20367;-53
2022/10/09 11:53:59;;;;;;;;;;;19.20;1.00;;;;;;5036042;28;19992;-53
2022/10/09 11:56:27;;;;;;;;;;;19.20;1.00;;;;;;5035847;28;20378;-51
2022/10/09 11:58:58;;;;;;;;;;;19.20;1.00;;;;;;5036064;28;19921;-53
2022/10/09 12:01:30;;;;;;;;;;;19.10;1.00;;;;;;5036282;28;19947;-56
2022/10/09 12:04:12;;;;;;;;;;;19.10;1.00;;;;;;5035261;28;19928;-56
2022/10/09 12:06:45;;;;;;;;;;;19.10;1.00;;;;;;5035899;28;19928;-53
2022/10/09 12:09:19;;;;;;;;;;;19.10;1.00;;;;;;5036128;28;19921;-54
2022/10/09 12:11:53;;;;;;;;;;;19.10;1.00;;;;;;5035498;28;20367;-59
2022/10/09 12:14:24;;;;;;;;;;;19.10;1.00;;;;;;5035632;28;19921;-51
2022/10/09 12:16:51;;;;;;;;;;;19.00;1.00;;;;;;5035501;28;19921;-53
2022/10/09 12:19:44;;;;;;;;;;;19.00;1.00;;;;;;5035935;28;19921;-48
2022/10/09 12:22:29;;;;;;;;;;;19.00;1.00;;;;;;5033322;28;20406;-53
2022/10/09 12:24:58;;;;;;;;;;;19.00;1.00;;;;;;5035710;28;19967;-57
2022/10/09 12:27:30;;;;;;;;;;;19.00;1.00;;;;;;5035605;28;19968;-54
2022/10/09 12:29:58;;;;;;;;;;;19.00;1.00;;;;;;5035578;28;19921;-55
2022/10/09 12:32:30;;;;;;;;;;;19.00;1.00;;;;;;5035220;28;19964;-55
2022/10/09 12:34:57;;;;;;;;;;;19.00;1.00;;;;;;5035590;28;19948;-51
2022/10/09 12:37:32;;;;;;;;;;;19.00;1.00;;;;;;5035062;28;20350;-56
2022/10/09 12:40:07;;;;;;;;;;;19.00;1.00;;;;;;5035887;28;20015;-57
2022/10/09 12:42:34;;;;;;;;;;;19.00;1.00;;;;;;5034822;28;20382;-49
2022/10/09 12:45:00;;;;;;;;;;;19.00;1.00;;;;;;5035610;28;19936;-56
2022/10/09 12:47:28;;;;;;;;;;;19.10;1.00;;;;;;5034608;28;19921;-54
2022/10/09 12:49:56;;;;;;;;;;;19.00;1.00;;;;;;5034977;28;19927;-56
2022/10/09 12:52:23;;;;;;;;;;;19.10;1.00;;;;;;5034858;28;19921;-54
2022/10/09 12:54:50;;;;;;;;;;;19.00;1.00;;;;;;5035029;28;19921;-51
2022/10/09 12:57:17;;;;;;;;;;;19.00;1.00;;;;;;5034770;28;19921;-50
2022/10/09 12:59:45;;;;;;;;;;;19.00;1.00;;;;;;5034859;28;19983;-54
2022/10/09 13:02:16;;;;;;;;;;;19.00;1.00;;;;;;5034368;28;19925;-57
2022/10/09 13:04:57;;;;;;;;;;;19.00;1.00;;;;;;5034773;28;19924;-51
2022/10/09 13:07:24;;;;;;;;;;;19.00;1.00;;;;;;5034663;28;20306;-55
2022/10/09 13:09:57;;;;;;;;;;;19.00;1.00;;;;;;5035062;28;20309;-57
2022/10/09 13:12:28;;;;;;;;;;;18.90;1.00;;;;;;5034710;28;20320;-55
2022/10/09 13:15:00;;;;;;;;;;;18.90;1.00;;;;;;5034667;28;19925;-56
2022/10/09 13:17:26;;;;;;;;;;;18.90;1.00;;;;;;5034368;28;19996;-55
2022/10/09 13:19:54;;;;;;;;;;;18.90;1.00;;;;;;5034523;28;19975;-56
2022/10/09 13:22:22;;;;;;;;;;;18.90;1.00;;;;;;5034189;28;19920;-55
2022/10/09 13:24:51;;;;;;;;;;;18.90;1.00;;;;;;5034358;28;19925;-50
2022/10/09 13:27:20;;;;;;;;;;;18.90;1.00;;;;;;5034403;28;19921;-53
2022/10/09 13:29:47;;;;;;;;;;;18.90;1.00;;;;;;5034616;28;19995;-56
2022/10/09 13:32:14;;;;;;;;;;;18.90;1.00;;;;;;5033970;28;19921;-55
2022/10/09 13:34:41;;;;;;;;;;;18.90;1.00;;;;;;5034341;28;19975;-55
2022/10/09 13:37:16;;;;;;;;;;;18.90;1.00;;;;;;5033895;28;19925;-53
2022/10/09 13:39:42;;;;;;;;;;;18.90;1.00;;;;;;5034486;28;20202;-57
2022/10/09 13:42:12;;;;;;;;;;;19.00;1.00;;;;;;5033801;28;19975;-52
2022/10/09 13:44:39;;;;;;;;;;;19.00;1.00;;;;;;5034012;28;19991;-50
2022/10/09 13:47:05;;;;;;;;;;;19.00;1.00;;;;;;5034227;28;19950;-58
2022/10/09 13:49:32;;;;;;;;;;;19.00;1.00;;;;;;5034237;28;20244;-59
2022/10/09 13:51:59;;;;;;;;;;;19.00;1.00;;;;;;5033630;28;19921;-56
2022/10/09 13:54:27;;;;;;;;;;;19.00;1.00;;;;;;5032794;28;20260;-53
2022/10/09 13:56:54;;;;;;;;;;;19.00;1.00;;;;;;5024987;28;20381;-50
2022/10/09 13:59:23;;;;;;;;;;;19.10;1.00;;;;;;5024271;28;19927;-58
2022/10/09 14:01:50;;;;;;;;;;;19.00;1.00;;;;;;5033722;28;19921;-54
2022/10/09 14:04:17;;;;;;;;;;;18.90;1.00;;;;;;5033909;28;19956;-55
2022/10/09 14:06:43;;;;;;;;;;;18.90;1.00;;;;;;5033738;28;19924;-54
2022/10/09 14:09:10;;;;;;;;;;;18.80;1.00;;;;;;5033845;28;19974;-54
2022/10/09 14:11:37;;;;;;;;;;;18.80;1.00;;;;;;5033900;28;19921;-57
2022/10/09 14:14:03;;;;;;;;;;;18.80;1.00;;;;;;5034207;28;19928;-54
2022/10/09 14:16:30;;;;;;;;;;;18.80;1.00;;;;;;5025678;28;19933;-51
2022/10/09 14:19:00;;;;;;;;;;;18.80;1.00;;;;;;5013755;28;20318;-52
2022/10/09 14:21:27;;;;;;;;;;;18.90;1.00;;;;;;5013700;28;19921;-53
2022/10/09 14:23:59;;;;;;;;;;;18.80;1.00;;;;;;5020032;28;19925;-54
2022/10/09 14:26:26;;;;;;;;;;;18.80;1.00;;;;;;5033521;28;19921;-59
2022/10/09 14:28:53;;;;;;;;;;;18.80;1.00;;;;;;5036514;28;20005;-56
2022/10/09 14:31:20;;;;;;;;;;;18.80;1.00;;;;;;5037344;28;19921;-51
2022/10/09 14:33:47;;;;;;;;;;;18.80;1.00;;;;;;5027378;28;19969;-55
2022/10/09 14:36:17;;;;;;;;;;;18.80;1.00;;;;;;5018128;28;20375;-54
2022/10/09 14:38:44;;;;;;;;;;;18.80;1.00;;;;;;5037640;28;19931;-51
2022/10/09 14:41:12;;;;;;;;;;;18.80;1.00;;;;;;5037504;28;20294;-54
2022/10/09 14:43:39;;;;;;;;;;;18.80;1.00;;;;;;5037178;28;19956;-54
2022/10/09 14:46:15;;;;;;;;;;;18.80;1.00;;;;;;5037250;28;19974;-52